Askew, Mississippi
Current Conditions -  °F | °C
As of 9:55 PM on Thursday 18 Dec 2014 (Local Time) from KUTA Reporting Station
Broken Clouds Broken Clouds  
Wind Chill: 39°   Ceiling: 3200
Heat Index: 43°   Visibility: 7mi
Dew Point: 39°   Wind: 7mph
Humidity: 87%   Direction: 360°N
Pressure: 30.25"   Gusts: NA
Location:  34.441°N, 90.1719°W
Report Text: KUTA 190355Z AUTO 36006KT 7SM SCT024 BKN032 06/04 A3025 RMK AO2
Loading
Personal Weather Stations






























Interactive Weather Map New forecast layout! Learn more

10-Day Weather Forecast

Advertisements
Track Severe Weather on mobile